Time;durP1;ratioP1;P1;durP2;ratioP2;P2;SDS_P1;SDS_P2;PMS_P1;PMS_P2;Temp;Humidity;BMP_temperature;BMP_pressure;BME280_temperature;BME280_humidity;BME280_pressure;Samples;Min_cycle;Max_cycle;Signal;HPM_P1;HPM_P2
2023/07/07 00:00:24;;;;;;;11.82;10.25;;;;;;;19.85;nan;95025.41;5046329;28;20807;-65
2023/07/07 00:02:50;;;;;;;11.57;10.00;;;;;;;19.91;nan;95014.66;5045769;28;20746;-64
2023/07/07 00:05:17;;;;;;;16.52;12.25;;;;;;;19.93;nan;95027.44;5049558;28;20206;-64
2023/07/07 00:07:44;;;;;;;13.45;12.27;;;;;;;19.94;nan;95034.25;5050153;28;20235;-65
2023/07/07 00:10:12;;;;;;;12.10;10.80;;;;;;;19.92;nan;95036.09;5050186;28;20301;-64
2023/07/07 00:12:39;;;;;;;13.93;9.30;;;;;;;19.83;nan;95027.25;5050086;28;20264;-64
2023/07/07 00:15:07;;;;;;;9.52;8.75;;;;;;;19.87;nan;95035.59;5049978;28;20611;-64
2023/07/07 00:17:34;;;;;;;10.77;9.80;;;;;;;19.89;nan;95028.59;5049683;28;20688;-65
2023/07/07 00:20:06;;;;;;;9.90;9.00;;;;;;;19.92;nan;95023.22;5049481;28;20260;-63
2023/07/07 00:22:33;;;;;;;10.02;9.05;;;;;;;19.94;nan;95018.78;5049667;28;20211;-64
2023/07/07 00:25:00;;;;;;;9.60;8.55;;;;;;;19.82;nan;95014.47;5049042;28;20234;-64
2023/07/07 00:27:28;;;;;;;10.73;9.20;;;;;;;19.80;nan;95030.03;5049476;28;20684;-64
2023/07/07 00:29:55;;;;;;;9.15;8.27;;;;;;;19.81;nan;95028.28;5049704;28;20276;-64
2023/07/07 00:32:22;;;;;;;10.02;9.02;;;;;;;19.66;nan;95005.25;5049381;28;20209;-65
2023/07/07 00:34:48;;;;;;;11.23;9.02;;;;;;;;;;5048881;28;20203;-64
2023/07/07 00:37:15;;;;;;;11.88;9.30;;;;;;;;;;5049232;28;20263;-65
2023/07/07 00:39:41;;;;;;;10.50;9.55;;;;;;;;;;5049467;28;20230;-65
2023/07/07 00:42:08;;;;;;;10.07;9.13;;;;;;;;;;5049134;28;20242;-65
2023/07/07 00:44:50;;;;;;;9.43;8.73;;;;;;;;;;5048898;28;20203;-65
2023/07/07 00:47:18;;;;;;;11.35;9.05;;;;;;;;;;5048731;28;20285;-63
2023/07/07 00:49:44;;;;;;;10.55;8.60;;;;;;;;;;5049719;28;20195;-65
2023/07/07 00:52:11;;;;;;;11.07;9.48;;;;;;;;;;5049014;28;20260;-64
2023/07/07 00:54:37;;;;;;;11.93;9.85;;;;;;;23.25;100.00;56616.03;5048913;28;20595;-64
2023/07/07 00:57:06;;;;;;;10.77;9.70;;;;;;;23.25;100.00;56616.03;5049031;28;20259;-64
2023/07/07 00:59:34;;;;;;;9.38;8.77;;;;;;;;;;5049512;28;20847;-64
2023/07/07 01:02:06;;;;;;;9.43;8.80;;;;;;;-142.91;100.00;56616.03;5048193;28;20291;-65
2023/07/07 01:04:34;;;;;;;9.18;8.43;;;;;;;-142.91;100.00;56616.03;5046723;28;20920;-64
2023/07/07 01:07:06;;;;;;;9.63;9.02;;;;;;;-142.91;100.00;56616.03;5048395;28;20196;-63
2023/07/07 01:09:32;;;;;;;10.13;9.30;;;;;;;-142.91;100.00;56616.03;5048878;28;21091;-64
2023/07/07 01:11:59;;;;;;;11.05;9.98;;;;;;;-142.91;100.00;56616.03;5049320;28;20222;-64
2023/07/07 01:14:30;;;;;;;21.17;12.05;;;;;;;23.25;100.00;56616.03;5046315;28;20211;-64
2023/07/07 01:17:13;;;;;;;13.85;12.43;;;;;;;-142.91;100.00;56616.03;5048721;28;20251;-65
2023/07/07 01:20:12;;;;;;;19.95;13.73;;;;;;;-142.91;100.00;56616.03;5046514;28;20214;-64
2023/07/07 01:23:31;;;;;;;14.10;12.77;;;;;;;-142.91;100.00;56616.03;5048664;28;20673;-64
2023/07/07 01:26:17;;;;;;;13.07;11.70;;;;;;;-142.91;100.00;56616.03;5047915;28;20203;-64
2023/07/07 01:28:54;;;;;;;15.38;12.85;;;;;;;;;;5046520;28;20631;-65
2023/07/07 01:31:28;;;;;;;12.93;11.43;;;;;;;23.25;100.00;56616.03;5046537;28;20874;-65
2023/07/07 01:33:54;;;;;;;12.30;11.10;;;;;;;;;;5047018;28;20245;-65
2023/07/07 01:36:21;;;;;;;12.90;11.75;;;;;;;23.25;100.00;56616.03;5045300;28;20215;-64
2023/07/07 01:38:48;;;;;;;12.52;11.15;;;;;;;23.25;100.00;56616.03;5046756;28;20261;-65
2023/07/07 01:41:22;;;;;;;12.65;11.43;;;;;;;23.25;100.00;56616.03;5046500;28;20242;-63
2023/07/07 01:43:53;;;;;;;14.57;12.90;;;;;;;;;;5048307;28;20264;-64
2023/07/07 01:46:28;;;;;;;13.07;11.80;;;;;;;23.25;100.00;56616.03;5046726;28;20264;-64
2023/07/07 01:49:00;;;;;;;11.95;10.95;;;;;;;23.25;100.00;56616.03;5048533;28;20221;-65
2023/07/07 01:51:33;;;;;;;12.57;11.48;;;;;;;23.25;100.00;56616.03;5047781;28;20250;-64
2023/07/07 01:54:03;;;;;;;18.42;16.27;;;;;;;23.25;100.00;56616.03;5047831;28;20260;-65
2023/07/07 01:56:32;;;;;;;28.52;20.23;;;;;;;-142.91;100.00;56616.03;5047818;28;20223;-65
2023/07/07 01:59:00;;;;;;;17.67;13.85;;;;;;;23.25;100.00;56616.03;5047775;28;20264;-65
2023/07/07 02:01:30;;;;;;;13.05;11.73;;;;;;;23.25;100.00;56616.03;5047515;28;20219;-64
2023/07/07 02:03:56;;;;;;;12.57;11.43;;;;;;;23.25;100.00;56616.03;5047581;28;20203;-65
2023/07/07 02:06:23;;;;;;;13.18;11.88;;;;;;;;;;5047532;28;20239;-64
2023/07/07 02:08:50;;;;;;;14.70;11.75;;;;;;;-142.91;100.00;56616.03;5047592;28;20199;-64
2023/07/07 02:11:16;;;;;;;11.50;10.43;;;;;;;-142.91;100.00;56616.03;5047374;28;20222;-63
2023/07/07 02:13:43;;;;;;;11.57;10.65;;;;;;;-142.91;100.00;56616.03;5048211;28;20254;-64
2023/07/07 02:16:10;;;;;;;11.70;10.70;;;;;;;24.55;100.00;56616.03;5047099;28;20225;-64
2023/07/07 02:18:41;;;;;;;11.25;10.45;;;;;;;25.85;100.00;56616.03;5047893;28;20242;-65
2023/07/07 02:21:08;;;;;;;14.82;11.05;;;;;;;-142.91;100.00;56616.03;5046788;28;20222;-64
2023/07/07 02:23:35;;;;;;;12.95;11.65;;;;;;;25.85;100.00;56616.03;5047477;28;20222;-63
2023/07/07 02:26:01;;;;;;;11.90;10.90;;;;;;;23.25;100.00;56616.03;5046545;28;20195;-64
2023/07/07 02:28:28;;;;;;;16.27;12.18;;;;;;;-142.91;100.00;56616.03;5047210;28;20214;-65
2023/07/07 02:30:55;;;;;;;11.85;10.98;;;;;;;24.55;100.00;56616.03;5046333;28;20238;-64
2023/07/07 02:33:31;;;;;;;12.77;11.52;;;;;;;28.45;100.00;56616.03;5047299;28;20227;-65
2023/07/07 02:36:01;;;;;;;12.40;11.30;;;;;;;-142.91;100.00;56616.03;5046560;28;20603;-64
2023/07/07 02:38:28;;;;;;;13.68;12.40;;;;;;;-142.91;100.00;56616.03;5047383;28;20294;-65
2023/07/07 02:40:56;;;;;;;13.98;12.52;;;;;;;-142.91;100.00;56616.03;5046706;28;20643;-65
2023/07/07 02:43:22;;;;;;;13.65;12.48;;;;;;;23.90;100.00;56616.03;5047135;28;20260;-64
2023/07/07 02:45:49;;;;;;;14.57;13.13;;;;;;;24.55;100.00;56616.03;5046517;28;20260;-64
2023/07/07 02:48:18;;;;;;;14.73;13.00;;;;;;;23.90;100.00;56616.03;5047650;28;20296;-65
2023/07/07 02:50:45;;;;;;;15.25;13.35;;;;;;;23.26;100.00;56616.03;5047188;28;20199;-65
2023/07/07 02:53:14;;;;;;;15.02;13.40;;;;;;;-142.91;100.00;56616.03;5047148;28;20265;-62
2023/07/07 02:55:40;;;;;;;14.43;13.00;;;;;;;24.55;100.00;56616.03;5046581;28;20207;-64
2023/07/07 02:58:07;;;;;;;13.77;12.73;;;;;;;24.55;100.00;56616.03;5046840;28;20262;-65
2023/07/07 03:00:34;;;;;;;15.85;14.35;;;;;;;25.85;100.00;56616.03;5047278;28;20281;-64
2023/07/07 03:03:00;;;;;;;16.27;14.95;;;;;;;23.90;100.00;56616.03;5047470;28;20227;-65
2023/07/07 03:05:27;;;;;;;16.13;14.50;;;;;;;25.85;100.00;56616.03;5046311;28;20669;-65
2023/07/07 03:07:54;;;;;;;17.60;13.82;;;;;;;23.41;100.00;56616.03;5047689;28;20306;-67
2023/07/07 03:10:22;;;;;;;16.40;14.82;;;;;;;-142.91;100.00;56616.03;5045272;28;20222;-64
2023/07/07 03:12:48;;;;;;;15.45;14.05;;;;;;;24.55;100.00;56616.03;5045926;28;20256;-65
2023/07/07 03:15:15;;;;;;;17.73;15.90;;;;;;;-142.91;100.00;56616.03;5047193;28;20203;-65
2023/07/07 03:17:42;;;;;;;15.75;14.55;;;;;;;-142.91;100.00;56616.03;5046048;28;20237;-66
2023/07/07 03:20:10;;;;;;;16.27;14.90;;;;;;;-142.91;100.00;56616.03;5047308;28;20250;-66
2023/07/07 03:22:36;;;;;;;16.60;15.10;;;;;;;-142.91;100.00;56616.03;5046115;28;20459;-65
2023/07/07 03:25:03;;;;;;;17.23;15.68;;;;;;;-142.91;100.00;56616.03;5046637;28;20252;-66
2023/07/07 03:27:31;;;;;;;17.50;15.90;;;;;;;23.90;100.00;56616.03;5046344;28;20211;-67
2023/07/07 03:29:58;;;;;;;15.20;14.02;;;;;;;-142.91;100.00;56616.03;5046122;28;20666;-65
2023/07/07 03:32:27;;;;;;;16.50;14.75;;;;;;;-142.91;100.00;56616.03;5044928;28;20199;-65
2023/07/07 03:34:53;;;;;;;17.85;15.48;;;;;;;-142.91;100.00;56616.03;5044505;28;20645;-65
2023/07/07 03:37:20;;;;;;;15.55;14.23;;;;;;;-142.91;100.00;56616.03;5046241;28;20222;-65
2023/07/07 03:39:47;;;;;;;15.85;14.20;;;;;;;-142.91;100.00;56616.03;5048999;28;20199;-66
2023/07/07 03:42:13;;;;;;;16.75;13.05;;;;;;;-142.91;100.00;56616.03;5049354;28;20284;-65
2023/07/07 03:44:41;;;;;;;15.00;12.85;;;;;;;-142.91;100.00;56616.03;5048551;28;20261;-65
2023/07/07 03:47:08;;;;;;;13.65;12.50;;;;;;;-142.91;100.00;56616.03;5050038;28;20203;-65
2023/07/07 03:49:35;;;;;;;13.43;12.13;;;;;;;-142.91;100.00;56616.03;5050880;28;20230;-66
2023/07/07 03:52:01;;;;;;;20.90;11.93;;;;;;;-142.91;100.00;56616.03;5050448;28;20230;-66
2023/07/07 03:54:28;;;;;;;18.75;12.98;;;;;;;-142.91;100.00;56616.03;5050303;28;20223;-65
2023/07/07 03:56:54;;;;;;;13.38;12.10;;;;;;;;;;5050451;28;20254;-66
2023/07/07 03:59:21;;;;;;;14.90;13.50;;;;;;;;;;5049853;28;20756;-66
2023/07/07 04:01:49;;;;;;;13.38;12.30;;;;;;;;;;5050313;28;20637;-66
2023/07/07 04:04:16;;;;;;;18.90;14.13;;;;;;;;;;5050352;28;20199;-65
2023/07/07 04:06:42;;;;;;;14.25;12.85;;;;;;;;;;5050367;28;20230;-65
2023/07/07 04:09:09;;;;;;;15.30;12.82;;;;;;;;;;5050195;28;20211;-65
2023/07/07 04:11:35;;;;;;;15.85;14.18;;;;;;;;;;5050204;28;20207;-65
2023/07/07 04:14:01;;;;;;;16.55;15.05;;;;;;;;;;5050277;28;20211;-65
2023/07/07 04:16:28;;;;;;;18.88;17.35;;;;;;;;;;5049703;28;20207;-67
2023/07/07 04:18:56;;;;;;;19.63;17.83;;;;;;;;;;5050759;28;20244;-65
2023/07/07 04:21:23;;;;;;;18.52;16.67;;;;;;;;;;5049453;28;20659;-65
2023/07/07 04:23:51;;;;;;;21.63;19.42;;;;;;;;;;5050408;28;20253;-65
2023/07/07 04:26:19;;;;;;;22.67;19.95;;;;;;;;;;5049542;28;20284;-66
2023/07/07 04:28:45;;;;;;;18.67;16.67;;;;;;;;;;5050127;28;20227;-65
2023/07/07 04:31:12;;;;;;;17.08;15.60;;;;;;;;;;5049775;28;20207;-67
2023/07/07 04:33:39;;;;;;;16.77;15.35;;;;;;;;;;5049742;28;20214;-67
2023/07/07 04:36:08;;;;;;;15.18;13.68;;;;;;;;;;5049522;28;20202;-66
2023/07/07 04:38:35;;;;;;;18.58;16.80;;;;;;;;;;5049514;28;20314;-66
2023/07/07 04:41:09;;;;;;;17.02;15.32;;;;;;;;;;5049274;28;20203;-67
2023/07/07 04:43:36;;;;;;;14.70;13.50;;;;;;;;;;5049652;28;20206;-66
2023/07/07 04:46:03;;;;;;;18.23;16.48;;;;;;;;;;5049867;28;20211;-66
2023/07/07 04:48:30;;;;;;;26.20;20.05;;;;;;;;;;5048928;28;20211;-66
2023/07/07 04:50:59;;;;;;;20.45;17.02;;;;;;;;;;5049248;28;20229;-65
2023/07/07 04:53:28;;;;;;;21.85;19.55;;;;;;;;;;5049150;28;20210;-66
2023/07/07 04:55:55;;;;;;;25.67;22.80;;;;;;;;;;5049426;28;20290;-68
2023/07/07 04:58:21;;;;;;;32.22;28.92;;;;;;;;;;5049471;28;20223;-65
2023/07/07 05:00:48;;;;;;;23.98;20.90;;;;;;;;;;5049291;28;20203;-67
2023/07/07 05:03:14;;;;;;;15.48;14.07;;;;;;;;;;5049262;28;20271;-66
2023/07/07 05:05:40;;;;;;;17.83;16.00;;;;;;;;;;5048726;28;20750;-67
2023/07/07 05:08:07;;;;;;;15.90;14.57;;;;;;;;;;5049278;28;20207;-67
2023/07/07 05:10:35;;;;;;;17.25;15.55;;;;;;;;;;5047655;28;20239;-67
2023/07/07 05:13:01;;;;;;;16.15;14.82;;;;;;;;;;5047827;28;20707;-66
2023/07/07 05:15:28;;;;;;;16.52;15.13;;;;;;;;;;5048816;28;20269;-67
2023/07/07 05:17:54;;;;;;;17.17;15.68;;;;;;;;;;5046733;28;20276;-66
2023/07/07 05:20:21;;;;;;;17.75;15.98;;;;;;;;;;5048765;28;20316;-67
2023/07/07 05:22:48;;;;;;;17.98;15.23;;;;;;;;;;5048810;28;20242;-67
2023/07/07 05:25:14;;;;;;;15.73;14.38;;;;;;;;;;5048850;28;20683;-66
2023/07/07 05:27:42;;;;;;;17.40;15.88;;;;;;;;;;5048126;28;20214;-66
2023/07/07 05:30:09;;;;;;;16.60;14.90;;;;;;;;;;5048689;28;20673;-66
2023/07/07 05:32:35;;;;;;;16.38;14.98;;;;;;;;;;5048359;28;20677;-66
2023/07/07 05:35:02;;;;;;;16.45;14.70;;;;;;;;;;5047249;28;20238;-65
2023/07/07 05:37:29;;;;;;;17.13;15.45;;;;;;;;;;5045665;28;20261;-64
2023/07/07 05:39:56;;;;;;;15.60;14.23;;;;;;;;;;5046823;28;20734;-65
2023/07/07 05:42:22;;;;;;;16.77;15.23;;;;;;;;;;5047152;28;20255;-65
2023/07/07 05:44:50;;;;;;;19.02;14.88;;;;;;;;;;5047310;28;20227;-66
2023/07/07 05:47:17;;;;;;;16.20;14.93;;;;;;;;;;5046481;28;20226;-65
2023/07/07 05:49:43;;;;;;;17.27;15.70;;;;;;;;;;5047009;28;20609;-65
2023/07/07 05:52:10;;;;;;;16.88;15.32;;;;;;;;;;5048022;28;20265;-65
2023/07/07 05:54:36;;;;;;;16.67;15.27;;;;;;;;;;5048806;28;20195;-65
2023/07/07 05:57:02;;;;;;;16.70;15.20;;;;;;;;;;5047737;28;20267;-65
2023/07/07 05:59:31;;;;;;;21.80;16.38;;;;;;;;;;5048463;28;20202;-64
2023/07/07 06:01:59;;;;;;;17.05;15.32;;;;;;;;;;5046669;28;20204;-65
2023/07/07 06:04:25;;;;;;;17.83;15.95;;;;;;;;;;5048725;28;20293;-65
2023/07/07 06:06:52;;;;;;;23.25;15.32;;;;;;;;;;5047230;28;20235;-65
2023/07/07 06:09:18;;;;;;;17.08;15.68;;;;;;;;;;5047925;28;20560;-66
2023/07/07 06:11:47;;;;;;;17.00;15.45;;;;;;;;;;5047869;28;20747;-64
2023/07/07 06:14:13;;;;;;;16.73;15.32;;;;;;;;;;5048241;28;20199;-66
2023/07/07 06:16:40;;;;;;;16.73;15.05;;;;;;;;;;5047489;28;20226;-65
2023/07/07 06:19:07;;;;;;;16.10;14.75;;;;;;;;;;5047530;28;20707;-65
2023/07/07 06:21:34;;;;;;;18.40;16.38;;;;;;;;;;5046692;28;20678;-67
2023/07/07 06:24:00;;;;;;;15.00;13.73;;;;;;;;;;5047838;28;20215;-66
2023/07/07 06:26:27;;;;;;;15.70;14.38;;;;;;;;;;5047213;28;20644;-66
2023/07/07 06:28:53;;;;;;;14.10;12.77;;;;;;;;;;5047570;28;20256;-66
2023/07/07 06:31:22;;;;;;;13.95;12.68;;;;;;;;;;5048001;28;20199;-66
2023/07/07 06:33:49;;;;;;;14.02;12.85;;;;;;;;;;5047361;28;20543;-66
2023/07/07 06:36:16;;;;;;;13.98;12.77;;;;;;;;;;5047387;28;21422;-66
2023/07/07 06:38:43;;;;;;;13.52;12.52;;;;;;;;;;5046413;28;20749;-67
2023/07/07 06:41:11;;;;;;;13.77;12.75;;;;;;;;;;5047273;28;20234;-65
2023/07/07 06:43:37;;;;;;;14.68;13.32;;;;;;;;;;5047354;28;20642;-66
2023/07/07 06:46:04;;;;;;;14.73;12.93;;;;;;;;;;5046692;28;20223;-66
2023/07/07 06:48:30;;;;;;;14.25;13.15;;;;;;;;;;5047221;28;20199;-66
2023/07/07 06:50:57;;;;;;;13.80;12.57;;;;;;;;;;5047205;28;20704;-66
2023/07/07 06:53:24;;;;;;;13.57;12.30;;;;;;;;;;5047248;28;20231;-68
2023/07/07 06:55:51;;;;;;;13.02;11.95;;;;;;;;;;5047464;28;20276;-67
2023/07/07 06:58:23;;;;;;;14.38;13.00;;;;;;;;;;5046646;28;20222;-67
2023/07/07 07:00:49;;;;;;;14.40;13.15;;;;;;;;;;5046993;28;20295;-67
2023/07/07 07:03:16;;;;;;;13.55;12.55;;;;;;;;;;5046442;28;20644;-67
2023/07/07 07:05:42;;;;;;;14.15;13.00;;;;;;;;;;5047129;28;20308;-67
2023/07/07 07:08:08;;;;;;;14.50;13.38;;;;;;;;;;5047160;28;20201;-67
2023/07/07 07:10:36;;;;;;;14.55;13.18;;;;;;;;;;5044780;28;20208;-67
2023/07/07 07:13:03;;;;;;;14.20;12.82;;;;;;;;;;5045417;28;20206;-66
2023/07/07 07:15:30;;;;;;;14.10;12.80;;;;;;;;;;5045531;28;20246;-67
2023/07/07 07:17:56;;;;;;;13.43;12.00;;;;;;;;;;5046192;28;20274;-67
2023/07/07 07:20:23;;;;;;;15.02;13.65;;;;;;;;;;5046551;28;20363;-66
2023/07/07 07:22:50;;;;;;;13.50;12.27;;;;;;;;;;5046891;28;20207;-66
2023/07/07 07:25:17;;;;;;;17.77;14.10;;;;;;;;;;5046684;28;20211;-66
2023/07/07 07:27:45;;;;;;;14.52;13.18;;;;;;;;;;5046415;28;20222;-66
2023/07/07 07:30:14;;;;;;;15.77;14.30;;;;;;;;;;5046978;28;20235;-67
2023/07/07 07:32:40;;;;;;;14.55;13.35;;;;;;;;;;5046629;28;20264;-67
2023/07/07 07:35:07;;;;;;;16.63;14.98;;;;;;;;;;5045067;28;20199;-65
2023/07/07 07:37:34;;;;;;;16.77;14.30;;;;;;;;;;5044642;28;20300;-66
2023/07/07 07:40:00;;;;;;;18.05;15.65;;;;;;;;;;5044951;28;20203;-67
2023/07/07 07:42:27;;;;;;;18.45;16.27;;;;;;;;;;5044822;28;20203;-66
2023/07/07 07:44:55;;;;;;;16.85;15.07;;;;;;;;;;5044772;28;20577;-68
2023/07/07 07:47:21;;;;;;;16.70;14.00;;;;;;;;;;5043905;28;20286;-67
2023/07/07 07:49:47;;;;;;;17.33;15.57;;;;;;;;;;5044461;28;20871;-67
2023/07/07 07:52:14;;;;;;;15.32;13.80;;;;;;;;;;5045848;28;20724;-67
2023/07/07 07:54:41;;;;;;;15.88;14.57;;;;;;;;;;5046773;28;20203;-67
2023/07/07 07:57:08;;;;;;;14.70;13.40;;;;;;;;;;5046418;28;20206;-68
2023/07/07 07:59:34;;;;;;;14.43;12.75;;;;;;;;;;5046075;28;20225;-66
2023/07/07 08:02:02;;;;;;;16.40;12.80;;;;;;;;;;5046579;28;20207;-69
2023/07/07 08:04:29;;;;;;;13.90;12.43;;;;;;;;;;5046011;28;20222;-68
2023/07/07 08:06:55;;;;;;;11.98;10.98;;;;;;;;;;5046586;28;20308;-68
2023/07/07 08:09:22;;;;;;;11.82;10.73;;;;;;;;;;5046389;28;20219;-68
2023/07/07 08:11:56;;;;;;;11.48;10.40;;;;;;;;;;5046546;28;20234;-69
2023/07/07 08:14:27;;;;;;;11.00;10.10;;;;;;;;;;5046048;28;20216;-68
2023/07/07 08:16:53;;;;;;;11.13;10.07;;;;;;;;;;5046458;28;20222;-67
2023/07/07 08:19:21;;;;;;;11.15;10.13;;;;;;;;;;5045847;28;20314;-66
2023/07/07 08:21:48;;;;;;;15.23;10.82;;;;;;;;;;5045883;28;20283;-68
2023/07/07 08:24:14;;;;;;;10.13;9.35;;;;;;;;;;5046928;28;20223;-69
2023/07/07 08:26:41;;;;;;;11.00;10.13;;;;;;;;;;5046961;28;20291;-68
2023/07/07 08:29:07;;;;;;;10.63;9.60;;;;;;;;;;5048566;28;20250;-68
2023/07/07 08:31:34;;;;;;;12.23;10.63;;;;;;;;;;5049141;28;20214;-71
2023/07/07 08:34:00;;;;;;;11.65;10.52;;;;;;;;;;5049310;28;20211;-68
2023/07/07 08:36:28;;;;;;;12.10;10.98;;;;;;;;;;5049415;28;20286;-69
2023/07/07 08:38:55;;;;;;;12.65;11.32;;;;;;;;;;5049061;28;20665;-68
2023/07/07 08:41:22;;;;;;;11.45;10.65;;;;;;;;;;5048749;28;20207;-65
2023/07/07 08:43:48;;;;;;;10.57;9.88;;;;;;;;;;5048844;28;20656;-66
2023/07/07 08:46:20;;;;;;;11.60;10.52;;;;;;;;;;5049157;28;20199;-66
2023/07/07 08:48:52;;;;;;;10.00;9.40;;;;;;;;;;5047464;28;20682;-67
2023/07/07 08:51:21;;;;;;;10.43;9.73;;;;;;;;;;5048179;28;20626;-66
2023/07/07 08:53:54;;;;;;;9.98;9.07;;;;;;;;;;5048682;28;20253;-68
2023/07/07 08:56:23;;;;;;;12.38;11.48;;;;;;;;;;5047373;28;20264;-66
2023/07/07 08:58:55;;;;;;;12.70;11.63;;;;;;;;;;5047104;28;20692;-67
2023/07/07 09:01:27;;;;;;;16.30;12.43;;;;;;;;;;5048762;28;20203;-62
2023/07/07 09:04:02;;;;;;;17.90;12.30;;;;;;;;;;5049179;28;20665;-67
2023/07/07 09:06:36;;;;;;;15.90;11.82;;;;;;;;;;5048705;28;20591;-67
2023/07/07 09:09:08;;;;;;;11.02;10.23;;;;;;;;;;5049246;28;20223;-67
2023/07/07 09:11:42;;;;;;;13.90;10.90;;;;;;;;;;5047097;28;20268;-66
2023/07/07 09:14:11;;;;;;;11.68;10.80;;;;;;;;;;5046446;28;20211;-64
2023/07/07 09:16:38;;;;;;;10.48;9.80;;;;;;;;;;5047058;28;20671;-66
2023/07/07 09:19:07;;;;;;;10.90;10.20;;;;;;;;;;5048922;28;20292;-67
2023/07/07 09:21:37;;;;;;;10.75;9.80;;;;;;;;;;5047199;28;20230;-68
2023/07/07 09:24:10;;;;;;;10.93;10.23;;;;;;;;;;5048508;28;20209;-67
2023/07/07 09:26:37;;;;;;;11.60;10.30;;;;;;;;;;5048181;28;20272;-68
2023/07/07 09:29:06;;;;;;;9.70;9.07;;;;;;;;;;5048025;28;20705;-65
2023/07/07 09:31:38;;;;;;;10.73;10.00;;;;;;;;;;5045642;28;20285;-67
2023/07/07 09:34:05;;;;;;;11.85;10.85;;;;;;;;;;5047184;28;20264;-66
2023/07/07 09:36:34;;;;;;;14.50;10.20;;;;;;;;;;5046219;28;20265;-65
2023/07/07 09:39:17;;;;;;;11.73;10.93;;;;;;;;;;5045312;28;20720;-65
2023/07/07 09:41:48;;;;;;;11.20;10.35;;;;;;;;;;5045197;28;20231;-65
2023/07/07 09:44:20;;;;;;;11.27;10.45;;;;;;;;;;5046424;28;20202;-65
2023/07/07 09:46:49;;;;;;;11.55;10.60;;;;;;;;;;5046005;28;20231;-66
2023/07/07 09:49:20;;;;;;;11.20;10.40;;;;;;;;;;5045487;28;20649;-64
2023/07/07 09:51:50;;;;;;;11.45;10.65;;;;;;;;;;5047377;28;20223;-65
2023/07/07 09:54:18;;;;;;;13.75;11.40;;;;;;;;;;5046193;28;20203;-65
2023/07/07 09:56:49;;;;;;;11.48;10.52;;;;;;;;;;5047943;28;20281;-65
2023/07/07 09:59:17;;;;;;;11.15;10.13;;;;;;;;;;5046749;28;20246;-64
2023/07/07 10:01:47;;;;;;;13.10;11.95;;;;;;;;;;5047968;28;20207;-67
2023/07/07 10:04:14;;;;;;;11.13;10.38;;;;;;;;;;5048568;28;20211;-67
2023/07/07 10:06:42;;;;;;;11.90;10.98;;;;;;;;;;5046289;28;20249;-66
2023/07/07 10:09:10;;;;;;;11.15;10.25;;;;;;;;;;5047851;28;20226;-63
2023/07/07 10:11:39;;;;;;;11.75;10.95;;;;;;;;;;5047593;28;21372;-66
2023/07/07 10:14:06;;;;;;;11.55;10.55;;;;;;;;;;5046964;28;20669;-66
2023/07/07 10:16:37;;;;;;;11.40;9.85;;;;;;;;;;5047243;28;20647;-66
2023/07/07 10:19:05;;;;;;;11.65;10.48;;;;;;;;;;5047543;28;20272;-66
2023/07/07 10:21:32;;;;;;;11.70;10.57;;;;;;;;;;5046799;28;20230;-65
2023/07/07 10:23:58;;;;;;;12.48;11.35;;;;;;;;;;5047155;28;20199;-67
2023/07/07 10:26:24;;;;;;;14.85;11.23;;;;;;;;;;5046872;28;20288;-65
2023/07/07 10:28:53;;;;;;;13.40;11.93;;;;;;;;;;5047526;28;20199;-64
2023/07/07 10:31:20;;;;;;;14.55;11.95;;;;;;;;;;5047625;28;20256;-65
2023/07/07 10:33:48;;;;;;;10.85;10.00;;;;;;;;;;5047223;28;20199;-65
2023/07/07 10:36:17;;;;;;;13.05;10.63;;;;;;;;;;5047477;28;20265;-66
2023/07/07 10:38:45;;;;;;;12.82;10.82;;;;;;;;;;5047312;28;20214;-66
2023/07/07 10:41:11;;;;;;;11.45;10.40;;;;;;;;;;5046938;28;20199;-65
2023/07/07 10:43:37;;;;;;;11.00;10.10;;;;;;;;;;5047274;28;20241;-65
2023/07/07 10:46:08;;;;;;;11.10;10.07;;;;;;;;;;5046920;28;20227;-66
2023/07/07 10:48:35;;;;;;;11.93;10.70;;;;;;;;;;5046340;28;20715;-65
2023/07/07 10:51:07;;;;;;;10.98;9.77;;;;;;;;;;5047070;28;20249;-66
2023/07/07 10:53:42;;;;;;;12.48;10.40;;;;;;;;;;5047450;28;20203;-64
2023/07/07 10:56:14;;;;;;;11.85;10.50;;;;;;;;;;5046708;28;20675;-65
2023/07/07 10:59:00;;;;;;;11.02;9.95;;;;;;;;;;5046764;28;20226;-64
2023/07/07 11:01:31;;;;;;;11.65;10.48;;;;;;;;;;5046517;28;20207;-65
2023/07/07 11:04:08;;;;;;;12.30;10.50;;;;;;;;;;5045079;28;20290;-65
2023/07/07 11:06:38;;;;;;;9.98;9.32;;;;;;;;;;5045990;28;20288;-65
2023/07/07 11:09:12;;;;;;;11.20;10.35;;;;;;;;;;5046738;28;20234;-64
2023/07/07 11:11:43;;;;;;;10.80;9.73;;;;;;;;;;5045661;28;20206;-65
2023/07/07 11:14:15;;;;;;;11.10;10.23;;;;;;;;;;5047220;28;20207;-65
2023/07/07 11:16:47;;;;;;;13.38;11.43;;;;;;;;;;5046452;28;20206;-64
2023/07/07 11:19:28;;;;;;;10.25;9.45;;;;;;;;;;5047064;28;20647;-66
2023/07/07 11:21:58;;;;;;;12.18;11.20;;;;;;;;;;5045513;28;20234;-64
2023/07/07 11:24:27;;;;;;;10.90;9.93;;;;;;;;;;5046806;28;20264;-65
2023/07/07 11:27:03;;;;;;;9.18;8.25;;;;;;;;;;5046525;28;20230;-65
2023/07/07 11:29:32;;;;;;;8.77;7.50;;;;;;;;;;5046743;28;20222;-64
2023/07/07 11:32:06;;;;;;;6.07;5.50;;;;;;;;;;5046091;28;20264;-65
2023/07/07 11:34:44;;;;;;;9.30;5.38;;;;;;;;;;5045620;28;20289;-64
2023/07/07 11:37:18;;;;;;;5.85;5.32;;;;;;;;;;5044735;28;20214;-62
2023/07/07 11:39:57;;;;;;;7.35;6.50;;;;;;;;;;5046585;28;20254;-63
2023/07/07 11:42:34;;;;;;;6.43;5.88;;;;;;;;;;5043901;28;20579;-64
2023/07/07 11:45:08;;;;;;;5.93;5.53;;;;;;;;;;5045021;28;20699;-63
2023/07/07 11:47:55;;;;;;;6.13;5.65;;;;;;;;;;5045579;28;20238;-64
2023/07/07 11:50:28;;;;;;;6.88;6.28;;;;;;;;;;5042371;28;20632;-64
2023/07/07 11:53:10;;;;;;;6.20;5.78;;;;;;;;;;5046522;28;20234;-65
2023/07/07 11:55:43;;;;;;;6.78;6.18;;;;;;;;;;5046227;28;20677;-64
2023/07/07 11:58:15;;;;;;;7.07;6.53;;;;;;;;;;5046018;28;20211;-63
2023/07/07 12:00:45;;;;;;;7.75;7.05;;;;;;;;;;5048263;28;20250;-64
2023/07/07 12:03:22;;;;;;;9.90;7.30;;;;;;;;;;5048357;28;20203;-63
2023/07/07 12:05:51;;;;;;;11.02;7.75;;;;;;;;;;5048337;28;20294;-64
2023/07/07 12:08:19;;;;;;;7.75;6.88;;;;;;;;;;5048225;28;20759;-64
2023/07/07 12:10:48;;;;;;;9.77;7.50;;;;;;;;;;5048128;28;20615;-63
2023/07/07 12:13:19;;;;;;;7.75;7.05;;;;;;;;;;5049182;28;20211;-64
2023/07/07 12:15:48;;;;;;;9.55;7.18;;;;;;;;;;5049997;28;20202;-65
2023/07/07 12:18:18;;;;;;;10.30;7.82;;;;;;;;;;5049807;28;20215;-64
2023/07/07 12:20:46;;;;;;;9.32;7.38;;;;;;;;;;5049389;28;20625;-64
2023/07/07 12:23:16;;;;;;;9.35;8.55;;;;;;;;;;5049706;28;20668;-64
2023/07/07 12:25:42;;;;;;;9.32;8.35;;;;;;;;;;5049608;28;20215;-64
2023/07/07 12:28:09;;;;;;;10.73;7.82;;;;;;;;;;5049482;28;20202;-66
2023/07/07 12:30:38;;;;;;;7.97;7.38;;;;;;;;;;5050242;28;20214;-66
2023/07/07 12:33:05;;;;;;;8.93;7.95;;;;;;;;;;5050017;28;20199;-66
2023/07/07 12:35:42;;;;;;;10.70;8.02;;;;;;;;;;5049375;28;20252;-64
2023/07/07 12:38:14;;;;;;;11.05;7.28;;;;;;;;;;5048721;28;20707;-66
2023/07/07 12:40:43;;;;;;;7.50;6.78;;;;;;;;;;5049224;28;20329;-64
2023/07/07 12:43:19;;;;;;;7.05;6.45;;;;;;;;;;5050057;28;20639;-66
2023/07/07 12:45:46;;;;;;;7.68;6.97;;;;;;;;;;5049185;28;20202;-64
2023/07/07 12:48:18;;;;;;;7.03;6.53;;;;;;;;;;5049518;28;20266;-65
2023/07/07 12:50:44;;;;;;;6.50;5.95;;;;;;;;;;5049088;28;20227;-65
2023/07/07 12:53:12;;;;;;;10.43;6.95;;;;;;;;;;5049927;28;20276;-67
2023/07/07 12:55:39;;;;;;;8.80;7.13;;;;;;;;;;5049289;28;20233;-66
2023/07/07 12:58:33;;;;;;;7.30;6.38;;;;;;;;;;5049613;28;20199;-65
2023/07/07 13:01:10;;;;;;;10.57;7.88;;;;;;;;;;5048877;28;20223;-65
2023/07/07 13:03:43;;;;;;;10.05;6.53;;;;;;;;;;5049282;28;20206;-65
2023/07/07 13:06:22;;;;;;;7.57;6.95;;;;;;;;;;5049418;28;20700;-65
2023/07/07 13:09:02;;;;;;;13.25;8.10;;;;;;;;;;5049289;28;20237;-64
2023/07/07 13:11:35;;;;;;;6.40;6.00;;;;;;;;;;5048405;28;20230;-65
2023/07/07 13:14:01;;;;;;;6.82;6.32;;;;;;;;;;5049385;28;20257;-64
2023/07/07 13:16:29;;;;;;;8.23;6.00;;;;;;;;;;5048285;28;20299;-64
2023/07/07 13:18:56;;;;;;;9.80;6.43;;;;;;;;;;5049196;28;20211;-64
2023/07/07 13:21:23;;;;;;;6.78;6.32;;;;;;;;;;5048622;28;20269;-64
2023/07/07 13:23:51;;;;;;;6.88;6.22;;;;;;;;;;5048823;28;20264;-64
2023/07/07 13:26:24;;;;;;;10.60;6.47;;;;;;;;;;5048563;28;20203;-64
2023/07/07 13:28:50;;;;;;;6.95;6.45;;;;;;;;;;5049073;28;20206;-64
2023/07/07 13:31:17;;;;;;;6.40;5.90;;;;;;;;;;5048618;28;20235;-65
2023/07/07 13:33:45;;;;;;;8.98;6.05;;;;;;;;;;5048868;28;20248;-64